sensor_id;sensor_type;location;lat;lon;timestamp;temperature;humidity
78694;SHT31;68029;51.978;5.646;2023-06-10T00:00:52;23.9;44.2
78694;SHT31;68029;51.978;5.646;2023-06-10T00:03:24;23.8;44.5
78694;SHT31;68029;51.978;5.646;2023-06-10T00:05:53;23.8;44.6
78694;SHT31;68029;51.978;5.646;2023-06-10T00:08:21;23.7;44.6
78694;SHT31;68029;51.978;5.646;2023-06-10T00:10:51;23.7;44.6
78694;SHT31;68029;51.978;5.646;2023-06-10T00:13:19;23.6;44.7
78694;SHT31;68029;51.978;5.646;2023-06-10T00:15:48;23.6;45.0
78694;SHT31;68029;51.978;5.646;2023-06-10T00:18:16;23.5;44.9
78694;SHT31;68029;51.978;5.646;2023-06-10T00:20:47;23.5;45.0
78694;SHT31;68029;51.978;5.646;2023-06-10T00:23:19;23.5;45.3
78694;SHT31;68029;51.978;5.646;2023-06-10T00:25:49;23.4;45.3
78694;SHT31;68029;51.978;5.646;2023-06-10T00:28:17;23.4;45.2
78694;SHT31;68029;51.978;5.646;2023-06-10T00:30:46;23.4;45.5
78694;SHT31;68029;51.978;5.646;2023-06-10T00:33:15;23.4;45.5
78694;SHT31;68029;51.978;5.646;2023-06-10T00:35:43;23.4;44.9
78694;SHT31;68029;51.978;5.646;2023-06-10T00:38:13;23.3;45.0
78694;SHT31;68029;51.978;5.646;2023-06-10T00:40:42;23.3;45.0
78694;SHT31;68029;51.978;5.646;2023-06-10T00:43:10;23.3;45.0
78694;SHT31;68029;51.978;5.646;2023-06-10T00:45:41;23.3;44.9
78694;SHT31;68029;51.978;5.646;2023-06-10T00:48:09;23.3;44.7
78694;SHT31;68029;51.978;5.646;2023-06-10T00:50:38;23.3;44.3
78694;SHT31;68029;51.978;5.646;2023-06-10T00:53:08;23.2;44.6
78694;SHT31;68029;51.978;5.646;2023-06-10T00:55:38;23.2;44.0
78694;SHT31;68029;51.978;5.646;2023-06-10T00:58:07;23.2;44.0
78694;SHT31;68029;51.978;5.646;2023-06-10T01:00:36;23.1;43.8
78694;SHT31;68029;51.978;5.646;2023-06-10T01:03:05;23.1;44.0
78694;SHT31;68029;51.978;5.646;2023-06-10T01:05:35;23.1;44.1
78694;SHT31;68029;51.978;5.646;2023-06-10T01:08:11;23.1;44.0
78694;SHT31;68029;51.978;5.646;2023-06-10T01:10:53;23.0;43.8
78694;SHT31;68029;51.978;5.646;2023-06-10T01:13:26;23.0;44.0
78694;SHT31;68029;51.978;5.646;2023-06-10T01:15:56;23.0;44.0
78694;SHT31;68029;51.978;5.646;2023-06-10T01:18:29;23.0;43.8
78694;SHT31;68029;51.978;5.646;2023-06-10T01:20:59;22.9;43.9
78694;SHT31;68029;51.978;5.646;2023-06-10T01:23:28;22.9;44.0
78694;SHT31;68029;51.978;5.646;2023-06-10T01:26:01;22.9;44.0
78694;SHT31;68029;51.978;5.646;2023-06-10T01:28:35;22.9;43.9
78694;SHT31;68029;51.978;5.646;2023-06-10T01:31:12;22.8;43.8
78694;SHT31;68029;51.978;5.646;2023-06-10T01:33:46;22.8;44.3
78694;SHT31;68029;51.978;5.646;2023-06-10T01:36:16;22.8;43.8
78694;SHT31;68029;51.978;5.646;2023-06-10T01:38:47;22.8;43.6
78694;SHT31;68029;51.978;5.646;2023-06-10T01:41:17;22.7;43.4
78694;SHT31;68029;51.978;5.646;2023-06-10T01:43:49;22.7;43.7
78694;SHT31;68029;51.978;5.646;2023-06-10T01:46:18;22.7;43.7
78694;SHT31;68029;51.978;5.646;2023-06-10T01:48:47;22.6;43.5
78694;SHT31;68029;51.978;5.646;2023-06-10T01:51:16;22.6;43.6
78694;SHT31;68029;51.978;5.646;2023-06-10T01:53:44;22.6;44.1
78694;SHT31;68029;51.978;5.646;2023-06-10T01:56:15;22.6;43.8
78694;SHT31;68029;51.978;5.646;2023-06-10T01:58:46;22.5;43.9
78694;SHT31;68029;51.978;5.646;2023-06-10T02:01:17;22.5;44.1
78694;SHT31;68029;51.978;5.646;2023-06-10T02:03:45;22.5;44.3
78694;SHT31;68029;51.978;5.646;2023-06-10T02:06:14;22.5;45.4
78694;SHT31;68029;51.978;5.646;2023-06-10T02:08:42;22.4;44.1
78694;SHT31;68029;51.978;5.646;2023-06-10T02:11:10;22.4;43.9
78694;SHT31;68029;51.978;5.646;2023-06-10T02:13:40;22.4;43.9
78694;SHT31;68029;51.978;5.646;2023-06-10T02:16:08;22.3;44.0
78694;SHT31;68029;51.978;5.646;2023-06-10T02:18:41;22.2;44.3
78694;SHT31;68029;51.978;5.646;2023-06-10T02:21:11;22.2;44.1
78694;SHT31;68029;51.978;5.646;2023-06-10T02:23:39;22.2;44.3
78694;SHT31;68029;51.978;5.646;2023-06-10T02:26:08;22.1;44.4
78694;SHT31;68029;51.978;5.646;2023-06-10T02:28:36;22.1;44.6
78694;SHT31;68029;51.978;5.646;2023-06-10T02:31:05;22.0;44.8
78694;SHT31;68029;51.978;5.646;2023-06-10T02:33:34;22.0;44.9
78694;SHT31;68029;51.978;5.646;2023-06-10T02:36:06;21.9;45.2
78694;SHT31;68029;51.978;5.646;2023-06-10T02:38:35;21.9;45.3
78694;SHT31;68029;51.978;5.646;2023-06-10T02:41:03;21.9;45.5
78694;SHT31;68029;51.978;5.646;2023-06-10T02:43:31;21.8;45.8
78694;SHT31;68029;51.978;5.646;2023-06-10T02:46:00;21.8;45.8
78694;SHT31;68029;51.978;5.646;2023-06-10T02:48:28;21.8;46.0
78694;SHT31;68029;51.978;5.646;2023-06-10T02:50:57;21.7;46.3
78694;SHT31;68029;51.978;5.646;2023-06-10T02:53:26;21.7;46.4
78694;SHT31;68029;51.978;5.646;2023-06-10T02:55:54;21.7;46.6
78694;SHT31;68029;51.978;5.646;2023-06-10T02:58:22;21.7;46.9
78694;SHT31;68029;51.978;5.646;2023-06-10T03:00:52;21.6;47.0
78694;SHT31;68029;51.978;5.646;2023-06-10T03:03:22;21.6;47.1
78694;SHT31;68029;51.978;5.646;2023-06-10T03:05:51;21.6;47.4
78694;SHT31;68029;51.978;5.646;2023-06-10T03:08:20;21.6;47.4
78694;SHT31;68029;51.978;5.646;2023-06-10T03:10:49;21.6;47.3
78694;SHT31;68029;51.978;5.646;2023-06-10T03:13:17;21.5;47.5
78694;SHT31;68029;51.978;5.646;2023-06-10T03:15:46;21.5;47.7
78694;SHT31;68029;51.978;5.646;2023-06-10T03:18:14;21.5;47.7
78694;SHT31;68029;51.978;5.646;2023-06-10T03:20:43;21.5;47.7
78694;SHT31;68029;51.978;5.646;2023-06-10T03:23:11;21.5;48.0
78694;SHT31;68029;51.978;5.646;2023-06-10T03:25:40;21.5;48.0
78694;SHT31;68029;51.978;5.646;2023-06-10T03:28:08;21.4;47.9
78694;SHT31;68029;51.978;5.646;2023-06-10T03:30:37;21.4;48.0
78694;SHT31;68029;51.978;5.646;2023-06-10T03:33:05;21.4;48.6
78694;SHT31;68029;51.978;5.646;2023-06-10T03:35:34;21.4;48.5
78694;SHT31;68029;51.978;5.646;2023-06-10T03:38:03;21.3;48.5
78694;SHT31;68029;51.978;5.646;2023-06-10T03:40:32;21.3;48.7
78694;SHT31;68029;51.978;5.646;2023-06-10T03:43:01;21.3;48.4
78694;SHT31;68029;51.978;5.646;2023-06-10T03:45:29;21.3;48.5
78694;SHT31;68029;51.978;5.646;2023-06-10T03:47:58;21.3;48.8
78694;SHT31;68029;51.978;5.646;2023-06-10T03:50:29;21.2;48.8
78694;SHT31;68029;51.978;5.646;2023-06-10T03:52:58;21.2;49.0
78694;SHT31;68029;51.978;5.646;2023-06-10T03:55:26;21.2;49.1
78694;SHT31;68029;51.978;5.646;2023-06-10T03:57:55;21.1;49.2
78694;SHT31;68029;51.978;5.646;2023-06-10T04:00:24;21.1;49.3
78694;SHT31;68029;51.978;5.646;2023-06-10T04:02:53;21.1;49.6
78694;SHT31;68029;51.978;5.646;2023-06-10T04:05:24;21.1;50.0
78694;SHT31;68029;51.978;5.646;2023-06-10T04:07:55;21.1;49.8
78694;SHT31;68029;51.978;5.646;2023-06-10T04:10:23;21.1;49.8
78694;SHT31;68029;51.978;5.646;2023-06-10T04:12:51;21.0;49.9
78694;SHT31;68029;51.978;5.646;2023-06-10T04:15:21;21.0;50.0
78694;SHT31;68029;51.978;5.646;2023-06-10T04:17:49;21.0;50.6
78694;SHT31;68029;51.978;5.646;2023-06-10T04:20:19;21.0;50.3
78694;SHT31;68029;51.978;5.646;2023-06-10T04:22:47;21.0;50.2
78694;SHT31;68029;51.978;5.646;2023-06-10T04:25:18;21.0;50.4
78694;SHT31;68029;51.978;5.646;2023-06-10T04:27:46;21.0;50.4
78694;SHT31;68029;51.978;5.646;2023-06-10T04:30:16;21.0;50.6
78694;SHT31;68029;51.978;5.646;2023-06-10T04:32:45;21.0;50.7
78694;SHT31;68029;51.978;5.646;2023-06-10T04:35:16;20.9;50.8
78694;SHT31;68029;51.978;5.646;2023-06-10T04:37:46;20.9;51.3
78694;SHT31;68029;51.978;5.646;2023-06-10T04:40:15;20.9;50.8
78694;SHT31;68029;51.978;5.646;2023-06-10T04:42:44;20.9;50.9
78694;SHT31;68029;51.978;5.646;2023-06-10T04:45:12;20.9;51.3
78694;SHT31;68029;51.978;5.646;2023-06-10T04:47:41;20.9;51.2
78694;SHT31;68029;51.978;5.646;2023-06-10T04:50:10;20.9;51.5
78694;SHT31;68029;51.978;5.646;2023-06-10T04:52:40;21.0;51.3
78694;SHT31;68029;51.978;5.646;2023-06-10T04:55:10;21.0;51.2
78694;SHT31;68029;51.978;5.646;2023-06-10T04:57:39;21.0;51.9
78694;SHT31;68029;51.978;5.646;2023-06-10T05:00:08;21.0;51.7
78694;SHT31;68029;51.978;5.646;2023-06-10T05:02:37;21.1;51.3
78694;SHT31;68029;51.978;5.646;2023-06-10T05:05:06;21.1;51.5
78694;SHT31;68029;51.978;5.646;2023-06-10T05:07:35;21.1;51.7
78694;SHT31;68029;51.978;5.646;2023-06-10T05:10:04;21.1;50.9
78694;SHT31;68029;51.978;5.646;2023-06-10T05:12:33;21.2;51.7
78694;SHT31;68029;51.978;5.646;2023-06-10T05:15:01;21.2;52.0
78694;SHT31;68029;51.978;5.646;2023-06-10T05:17:29;21.3;51.6
78694;SHT31;68029;51.978;5.646;2023-06-10T05:19:58;21.3;51.2
78694;SHT31;68029;51.978;5.646;2023-06-10T05:22:26;21.4;51.6
78694;SHT31;68029;51.978;5.646;2023-06-10T05:24:55;21.5;51.7
78694;SHT31;68029;51.978;5.646;2023-06-10T05:27:23;21.6;51.2
78694;SHT31;68029;51.978;5.646;2023-06-10T05:29:52;21.7;50.9
78694;SHT31;68029;51.978;5.646;2023-06-10T05:32:20;21.8;51.1
78694;SHT31;68029;51.978;5.646;2023-06-10T05:34:49;21.9;51.5
78694;SHT31;68029;51.978;5.646;2023-06-10T05:37:17;22.0;50.5
78694;SHT31;68029;51.978;5.646;2023-06-10T05:39:46;22.2;50.3
78694;SHT31;68029;51.978;5.646;2023-06-10T05:42:14;22.3;49.7
78694;SHT31;68029;51.978;5.646;2023-06-10T05:44:42;22.4;49.5
78694;SHT31;68029;51.978;5.646;2023-06-10T05:47:11;22.6;49.1
78694;SHT31;68029;51.978;5.646;2023-06-10T05:49:39;22.7;49.2
78694;SHT31;68029;51.978;5.646;2023-06-10T05:52:08;22.8;49.3
78694;SHT31;68029;51.978;5.646;2023-06-10T05:54:37;22.9;49.1
78694;SHT31;68029;51.978;5.646;2023-06-10T05:57:05;23.1;49.6
78694;SHT31;68029;51.978;5.646;2023-06-10T05:59:36;23.2;47.8
78694;SHT31;68029;51.978;5.646;2023-06-10T06:02:05;23.4;48.0
78694;SHT31;68029;51.978;5.646;2023-06-10T06:04:34;23.5;47.0
78694;SHT31;68029;51.978;5.646;2023-06-10T06:07:06;23.6;48.1
78694;SHT31;68029;51.978;5.646;2023-06-10T06:09:34;23.8;48.7
78694;SHT31;68029;51.978;5.646;2023-06-10T06:12:04;23.9;47.3
78694;SHT31;68029;51.978;5.646;2023-06-10T06:14:38;24.1;47.0
78694;SHT31;68029;51.978;5.646;2023-06-10T06:17:07;24.3;46.5
78694;SHT31;68029;51.978;5.646;2023-06-10T06:19:38;24.4;45.9
78694;SHT31;68029;51.978;5.646;2023-06-10T06:22:06;24.5;45.8
78694;SHT31;68029;51.978;5.646;2023-06-10T06:24:34;24.7;45.4
78694;SHT31;68029;51.978;5.646;2023-06-10T06:27:03;24.8;45.0
78694;SHT31;68029;51.978;5.646;2023-06-10T06:29:33;24.9;46.0
78694;SHT31;68029;51.978;5.646;2023-06-10T06:32:03;25.0;44.3
78694;SHT31;68029;51.978;5.646;2023-06-10T06:34:32;25.2;44.5
78694;SHT31;68029;51.978;5.646;2023-06-10T06:37:00;25.3;44.3
78694;SHT31;68029;51.978;5.646;2023-06-10T06:39:29;25.5;43.6
78694;SHT31;68029;51.978;5.646;2023-06-10T06:41:57;25.6;43.6
78694;SHT31;68029;51.978;5.646;2023-06-10T06:44:26;25.7;43.4
78694;SHT31;68029;51.978;5.646;2023-06-10T06:46:54;25.9;43.7
78694;SHT31;68029;51.978;5.646;2023-06-10T06:49:23;26.0;44.1
78694;SHT31;68029;51.978;5.646;2023-06-10T06:51:52;26.2;42.7
78694;SHT31;68029;51.978;5.646;2023-06-10T06:54:21;26.4;42.3
78694;SHT31;68029;51.978;5.646;2023-06-10T06:56:50;26.6;41.9
78694;SHT31;68029;51.978;5.646;2023-06-10T06:59:18;26.7;41.2
78694;SHT31;68029;51.978;5.646;2023-06-10T07:01:47;26.8;42.4
78694;SHT31;68029;51.978;5.646;2023-06-10T07:04:16;27.0;42.0
78694;SHT31;68029;51.978;5.646;2023-06-10T07:06:46;27.1;41.7
78694;SHT31;68029;51.978;5.646;2023-06-10T07:09:14;27.3;41.0
78694;SHT31;68029;51.978;5.646;2023-06-10T07:11:43;27.4;42.2
78694;SHT31;68029;51.978;5.646;2023-06-10T07:14:11;27.6;40.7
78694;SHT31;68029;51.978;5.646;2023-06-10T07:16:40;27.7;40.5
78694;SHT31;68029;51.978;5.646;2023-06-10T07:19:10;27.9;39.5
78694;SHT31;68029;51.978;5.646;2023-06-10T07:21:38;28.0;40.5
78694;SHT31;68029;51.978;5.646;2023-06-10T07:24:08;28.2;40.2
78694;SHT31;68029;51.978;5.646;2023-06-10T07:26:38;28.4;38.2
78694;SHT31;68029;51.978;5.646;2023-06-10T07:29:08;28.5;39.9
78694;SHT31;68029;51.978;5.646;2023-06-10T07:31:37;28.7;39.5
78694;SHT31;68029;51.978;5.646;2023-06-10T07:34:05;28.8;37.0
78694;SHT31;68029;51.978;5.646;2023-06-10T07:36:34;29.0;37.2
78694;SHT31;68029;51.978;5.646;2023-06-10T07:39:03;29.1;38.3
78694;SHT31;68029;51.978;5.646;2023-06-10T07:41:32;29.2;37.1
78694;SHT31;68029;51.978;5.646;2023-06-10T07:44:01;29.3;38.0
78694;SHT31;68029;51.978;5.646;2023-06-10T07:46:30;29.5;37.4
78694;SHT31;68029;51.978;5.646;2023-06-10T07:49:01;29.6;38.7
78694;SHT31;68029;51.978;5.646;2023-06-10T07:51:29;29.8;37.6
78694;SHT31;68029;51.978;5.646;2023-06-10T07:53:57;30.0;37.8
78694;SHT31;68029;51.978;5.646;2023-06-10T07:56:28;30.1;37.2
78694;SHT31;68029;51.978;5.646;2023-06-10T07:58:56;30.3;36.4
78694;SHT31;68029;51.978;5.646;2023-06-10T08:01:27;30.4;35.4
78694;SHT31;68029;51.978;5.646;2023-06-10T08:03:56;30.6;34.6
78694;SHT31;68029;51.978;5.646;2023-06-10T08:06:24;30.7;35.9
78694;SHT31;68029;51.978;5.646;2023-06-10T08:08:55;30.8;35.4
78694;SHT31;68029;51.978;5.646;2023-06-10T08:11:23;30.9;34.1
78694;SHT31;68029;51.978;5.646;2023-06-10T08:13:54;31.0;32.8
78694;SHT31;68029;51.978;5.646;2023-06-10T08:16:23;31.1;35.7
78694;SHT31;68029;51.978;5.646;2023-06-10T08:18:51;31.3;33.5
78694;SHT31;68029;51.978;5.646;2023-06-10T08:21:19;31.4;33.5
78694;SHT31;68029;51.978;5.646;2023-06-10T08:23:52;31.5;32.6
78694;SHT31;68029;51.978;5.646;2023-06-10T08:26:23;31.6;32.2
78694;SHT31;68029;51.978;5.646;2023-06-10T08:28:54;31.7;32.2
78694;SHT31;68029;51.978;5.646;2023-06-10T08:31:22;31.8;32.0
78694;SHT31;68029;51.978;5.646;2023-06-10T08:33:51;32.0;32.5
78694;SHT31;68029;51.978;5.646;2023-06-10T08:36:21;32.1;32.3
78694;SHT31;68029;51.978;5.646;2023-06-10T08:38:49;32.2;32.1
78694;SHT31;68029;51.978;5.646;2023-06-10T08:41:21;32.4;31.1
78694;SHT31;68029;51.978;5.646;2023-06-10T08:44:02;32.5;31.8
78694;SHT31;68029;51.978;5.646;2023-06-10T08:46:33;32.7;31.8
78694;SHT31;68029;51.978;5.646;2023-06-10T08:49:05;32.8;31.9
78694;SHT31;68029;51.978;5.646;2023-06-10T08:51:36;32.9;30.7
78694;SHT31;68029;51.978;5.646;2023-06-10T08:54:14;33.1;30.7
78694;SHT31;68029;51.978;5.646;2023-06-10T08:56:49;33.1;31.5
78694;SHT31;68029;51.978;5.646;2023-06-10T08:59:20;33.2;31.2
78694;SHT31;68029;51.978;5.646;2023-06-10T09:01:50;33.3;30.8
78694;SHT31;68029;51.978;5.646;2023-06-10T09:04:19;33.4;30.9
78694;SHT31;68029;51.978;5.646;2023-06-10T09:06:51;33.5;30.9
78694;SHT31;68029;51.978;5.646;2023-06-10T09:09:23;33.6;29.7
78694;SHT31;68029;51.978;5.646;2023-06-10T09:11:51;33.7;29.6
78694;SHT31;68029;51.978;5.646;2023-06-10T09:14:20;33.8;30.3
78694;SHT31;68029;51.978;5.646;2023-06-10T09:16:50;33.8;29.2
78694;SHT31;68029;51.978;5.646;2023-06-10T09:19:23;33.9;29.6
78694;SHT31;68029;51.978;5.646;2023-06-10T09:21:53;33.9;29.2
78694;SHT31;68029;51.978;5.646;2023-06-10T09:24:23;33.9;29.1
78694;SHT31;68029;51.978;5.646;2023-06-10T09:27:03;34.0;29.0
78694;SHT31;68029;51.978;5.646;2023-06-10T09:29:50;34.0;28.8
78694;SHT31;68029;51.978;5.646;2023-06-10T09:32:20;34.0;28.5
78694;SHT31;68029;51.978;5.646;2023-06-10T09:34:48;34.1;29.5
78694;SHT31;68029;51.978;5.646;2023-06-10T09:37:23;34.2;29.9
78694;SHT31;68029;51.978;5.646;2023-06-10T09:40:03;34.3;29.5
78694;SHT31;68029;51.978;5.646;2023-06-10T09:42:36;34.4;28.7
78694;SHT31;68029;51.978;5.646;2023-06-10T09:45:06;34.5;28.8
78694;SHT31;68029;51.978;5.646;2023-06-10T09:47:35;34.6;28.9
78694;SHT31;68029;51.978;5.646;2023-06-10T09:50:05;34.7;28.8
78694;SHT31;68029;51.978;5.646;2023-06-10T09:52:39;34.9;29.6
78694;SHT31;68029;51.978;5.646;2023-06-10T09:55:09;35.1;29.0
78694;SHT31;68029;51.978;5.646;2023-06-10T09:57:38;35.2;28.3
78694;SHT31;68029;51.978;5.646;2023-06-10T10:00:09;35.4;27.5
78694;SHT31;68029;51.978;5.646;2023-06-10T10:02:46;35.5;27.4
78694;SHT31;68029;51.978;5.646;2023-06-10T10:05:18;35.6;27.2
78694;SHT31;68029;51.978;5.646;2023-06-10T10:07:48;35.7;26.8
78694;SHT31;68029;51.978;5.646;2023-06-10T10:10:19;35.8;26.3
78694;SHT31;68029;51.978;5.646;2023-06-10T10:12:51;35.9;26.0
78694;SHT31;68029;51.978;5.646;2023-06-10T10:15:25;36.0;27.5
78694;SHT31;68029;51.978;5.646;2023-06-10T10:18:04;36.0;27.2
78694;SHT31;68029;51.978;5.646;2023-06-10T10:20:38;36.1;26.8
78694;SHT31;68029;51.978;5.646;2023-06-10T10:23:14;36.2;26.2
78694;SHT31;68029;51.978;5.646;2023-06-10T10:25:53;36.4;25.6
78694;SHT31;68029;51.978;5.646;2023-06-10T10:28:24;36.4;26.2
78694;SHT31;68029;51.978;5.646;2023-06-10T10:31:01;36.5;24.5
78694;SHT31;68029;51.978;5.646;2023-06-10T10:33:39;36.5;24.5
78694;SHT31;68029;51.978;5.646;2023-06-10T10:36:09;36.6;24.1
78694;SHT31;68029;51.978;5.646;2023-06-10T10:38:39;36.6;24.0
78694;SHT31;68029;51.978;5.646;2023-06-10T10:41:09;36.6;24.9
78694;SHT31;68029;51.978;5.646;2023-06-10T10:43:40;36.6;23.3
78694;SHT31;68029;51.978;5.646;2023-06-10T10:46:12;36.7;23.8
78694;SHT31;68029;51.978;5.646;2023-06-10T10:48:42;36.7;23.6
78694;SHT31;68029;51.978;5.646;2023-06-10T10:51:11;36.7;24.0
78694;SHT31;68029;51.978;5.646;2023-06-10T10:53:40;36.7;23.3
78694;SHT31;68029;51.978;5.646;2023-06-10T10:56:13;36.7;22.9
78694;SHT31;68029;51.978;5.646;2023-06-10T10:59:03;36.7;23.0
78694;SHT31;68029;51.978;5.646;2023-06-10T11:01:42;36.7;23.4
78694;SHT31;68029;51.978;5.646;2023-06-10T11:04:12;36.7;22.4
78694;SHT31;68029;51.978;5.646;2023-06-10T11:06:53;36.8;23.2
78694;SHT31;68029;51.978;5.646;2023-06-10T11:09:29;36.8;23.1
78694;SHT31;68029;51.978;5.646;2023-06-10T11:11:58;37.0;21.8
78694;SHT31;68029;51.978;5.646;2023-06-10T11:14:30;37.1;22.2
78694;SHT31;68029;51.978;5.646;2023-06-10T11:17:00;37.2;21.2
78694;SHT31;68029;51.978;5.646;2023-06-10T11:19:36;37.3;21.1
78694;SHT31;68029;51.978;5.646;2023-06-10T11:22:08;37.3;21.3
78694;SHT31;68029;51.978;5.646;2023-06-10T11:24:37;37.3;20.7
78694;SHT31;68029;51.978;5.646;2023-06-10T11:27:20;37.3;21.0
78694;SHT31;68029;51.978;5.646;2023-06-10T11:29:57;37.3;22.7
78694;SHT31;68029;51.978;5.646;2023-06-10T11:32:30;37.4;20.9
78694;SHT31;68029;51.978;5.646;2023-06-10T11:35:00;37.5;19.9
78694;SHT31;68029;51.978;5.646;2023-06-10T11:37:33;37.5;20.5
78694;SHT31;68029;51.978;5.646;2023-06-10T11:40:03;37.5;21.1
78694;SHT31;68029;51.978;5.646;2023-06-10T11:42:32;37.5;20.0
78694;SHT31;68029;51.978;5.646;2023-06-10T11:45:00;37.5;20.1
78694;SHT31;68029;51.978;5.646;2023-06-10T11:47:29;37.5;20.5
78694;SHT31;68029;51.978;5.646;2023-06-10T11:49:57;37.5;20.2
78694;SHT31;68029;51.978;5.646;2023-06-10T11:52:30;37.5;20.4
78694;SHT31;68029;51.978;5.646;2023-06-10T11:55:05;37.5;20.6
78694;SHT31;68029;51.978;5.646;2023-06-10T11:57:36;37.4;21.0
78694;SHT31;68029;51.978;5.646;2023-06-10T12:00:08;37.5;21.2
78694;SHT31;68029;51.978;5.646;2023-06-10T12:02:37;37.5;21.1
78694;SHT31;68029;51.978;5.646;2023-06-10T12:05:14;37.6;21.2
78694;SHT31;68029;51.978;5.646;2023-06-10T12:07:45;37.7;20.6
78694;SHT31;68029;51.978;5.646;2023-06-10T12:10:14;37.7;21.0
78694;SHT31;68029;51.978;5.646;2023-06-10T12:12:44;37.7;20.3
78694;SHT31;68029;51.978;5.646;2023-06-10T12:15:25;37.6;20.9
78694;SHT31;68029;51.978;5.646;2023-06-10T12:17:57;37.6;21.8
78694;SHT31;68029;51.978;5.646;2023-06-10T12:20:28;37.7;21.5
78694;SHT31;68029;51.978;5.646;2023-06-10T12:22:58;37.8;20.5
78694;SHT31;68029;51.978;5.646;2023-06-10T12:25:28;37.8;21.2
78694;SHT31;68029;51.978;5.646;2023-06-10T12:27:59;37.9;19.9
78694;SHT31;68029;51.978;5.646;2023-06-10T12:30:29;37.9;19.9
78694;SHT31;68029;51.978;5.646;2023-06-10T12:32:58;38.0;20.1
78694;SHT31;68029;51.978;5.646;2023-06-10T12:35:28;38.0;20.4
78694;SHT31;68029;51.978;5.646;2023-06-10T12:37:59;37.9;20.2
78694;SHT31;68029;51.978;5.646;2023-06-10T12:40:31;37.8;20.4
78694;SHT31;68029;51.978;5.646;2023-06-10T12:43:02;37.8;20.5
78694;SHT31;68029;51.978;5.646;2023-06-10T12:45:32;37.7;21.1
78694;SHT31;68029;51.978;5.646;2023-06-10T12:48:08;37.7;20.3
78694;SHT31;68029;51.978;5.646;2023-06-10T12:50:38;37.7;20.0
78694;SHT31;68029;51.978;5.646;2023-06-10T12:53:08;37.7;20.5
78694;SHT31;68029;51.978;5.646;2023-06-10T12:55:38;37.7;20.0
78694;SHT31;68029;51.978;5.646;2023-06-10T12:58:07;37.7;20.8
78694;SHT31;68029;51.978;5.646;2023-06-10T13:00:36;37.7;21.3
78694;SHT31;68029;51.978;5.646;2023-06-10T13:03:05;37.8;20.7
78694;SHT31;68029;51.978;5.646;2023-06-10T13:05:34;37.8;19.9
78694;SHT31;68029;51.978;5.646;2023-06-10T13:08:06;37.8;20.0
78694;SHT31;68029;51.978;5.646;2023-06-10T13:10:37;37.8;19.9
78694;SHT31;68029;51.978;5.646;2023-06-10T13:13:05;37.8;20.2
78694;SHT31;68029;51.978;5.646;2023-06-10T13:15:36;37.8;20.5
78694;SHT31;68029;51.978;5.646;2023-06-10T13:18:04;37.8;19.5
78694;SHT31;68029;51.978;5.646;2023-06-10T13:20:33;37.8;20.3
78694;SHT31;68029;51.978;5.646;2023-06-10T13:23:02;37.8;20.9
78694;SHT31;68029;51.978;5.646;2023-06-10T13:25:32;37.8;19.8
78694;SHT31;68029;51.978;5.646;2023-06-10T13:28:01;37.8;19.6
78694;SHT31;68029;51.978;5.646;2023-06-10T13:30:29;37.7;19.9
78694;SHT31;68029;51.978;5.646;2023-06-10T13:32:58;37.7;20.1
78694;SHT31;68029;51.978;5.646;2023-06-10T13:35:27;37.7;21.3
78694;SHT31;68029;51.978;5.646;2023-06-10T13:37:57;37.7;21.6
78694;SHT31;68029;51.978;5.646;2023-06-10T13:40:25;37.8;21.2
78694;SHT31;68029;51.978;5.646;2023-06-10T13:42:54;37.8;20.8
78694;SHT31;68029;51.978;5.646;2023-06-10T13:45:23;37.8;20.7
78694;SHT31;68029;51.978;5.646;2023-06-10T13:47:51;37.9;20.1
78694;SHT31;68029;51.978;5.646;2023-06-10T13:50:19;37.9;20.4
78694;SHT31;68029;51.978;5.646;2023-06-10T13:52:48;37.9;19.9
78694;SHT31;68029;51.978;5.646;2023-06-10T13:55:17;37.9;19.9
78694;SHT31;68029;51.978;5.646;2023-06-10T13:57:47;37.9;20.1
78694;SHT31;68029;51.978;5.646;2023-06-10T14:00:16;37.9;19.8
78694;SHT31;68029;51.978;5.646;2023-06-10T14:02:45;37.8;19.8
78694;SHT31;68029;51.978;5.646;2023-06-10T14:05:15;37.8;19.3
78694;SHT31;68029;51.978;5.646;2023-06-10T14:07:43;37.7;19.8
78694;SHT31;68029;51.978;5.646;2023-06-10T14:10:12;37.6;19.6
78694;SHT31;68029;51.978;5.646;2023-06-10T14:12:40;37.6;20.3
78694;SHT31;68029;51.978;5.646;2023-06-10T14:15:12;37.5;20.3
78694;SHT31;68029;51.978;5.646;2023-06-10T14:17:41;37.5;21.2
78694;SHT31;68029;51.978;5.646;2023-06-10T14:20:10;37.5;19.4
78694;SHT31;68029;51.978;5.646;2023-06-10T14:22:39;37.4;18.9
78694;SHT31;68029;51.978;5.646;2023-06-10T14:25:08;37.4;19.2
78694;SHT31;68029;51.978;5.646;2023-06-10T14:27:39;37.3;19.5
78694;SHT31;68029;51.978;5.646;2023-06-10T14:30:09;37.2;19.6
78694;SHT31;68029;51.978;5.646;2023-06-10T14:32:38;37.1;20.0
78694;SHT31;68029;51.978;5.646;2023-06-10T14:35:08;37.0;20.1
78694;SHT31;68029;51.978;5.646;2023-06-10T14:37:37;36.9;19.2
78694;SHT31;68029;51.978;5.646;2023-06-10T14:40:06;36.7;19.4
78694;SHT31;68029;51.978;5.646;2023-06-10T14:42:35;36.6;19.7
78694;SHT31;68029;51.978;5.646;2023-06-10T14:45:05;36.4;19.3
78694;SHT31;68029;51.978;5.646;2023-06-10T14:47:34;36.2;19.5
78694;SHT31;68029;51.978;5.646;2023-06-10T14:50:03;36.1;20.4
78694;SHT31;68029;51.978;5.646;2023-06-10T14:52:31;35.9;21.1
78694;SHT31;68029;51.978;5.646;2023-06-10T14:55:00;35.7;21.9
78694;SHT31;68029;51.978;5.646;2023-06-10T14:57:28;35.6;21.2
78694;SHT31;68029;51.978;5.646;2023-06-10T14:59:59;35.5;21.2
78694;SHT31;68029;51.978;5.646;2023-06-10T15:02:27;35.4;21.6
78694;SHT31;68029;51.978;5.646;2023-06-10T15:04:56;35.3;22.0
78694;SHT31;68029;51.978;5.646;2023-06-10T15:07:24;35.2;21.7
78694;SHT31;68029;51.978;5.646;2023-06-10T15:09:53;35.1;22.6
78694;SHT31;68029;51.978;5.646;2023-06-10T15:12:21;35.0;22.6
78694;SHT31;68029;51.978;5.646;2023-06-10T15:14:51;34.9;22.9
78694;SHT31;68029;51.978;5.646;2023-06-10T15:17:21;34.9;22.4
78694;SHT31;68029;51.978;5.646;2023-06-10T15:19:50;34.8;22.6
78694;SHT31;68029;51.978;5.646;2023-06-10T15:22:19;34.7;22.5
78694;SHT31;68029;51.978;5.646;2023-06-10T15:24:47;34.6;22.7
78694;SHT31;68029;51.978;5.646;2023-06-10T15:27:18;34.3;22.4
78694;SHT31;68029;51.978;5.646;2023-06-10T15:29:46;34.2;22.8
78694;SHT31;68029;51.978;5.646;2023-06-10T15:32:14;34.0;23.2
78694;SHT31;68029;51.978;5.646;2023-06-10T15:34:43;33.9;23.6
78694;SHT31;68029;51.978;5.646;2023-06-10T15:37:14;33.9;23.4
78694;SHT31;68029;51.978;5.646;2023-06-10T15:39:42;33.8;23.6
78694;SHT31;68029;51.978;5.646;2023-06-10T15:42:11;33.8;23.8
78694;SHT31;68029;51.978;5.646;2023-06-10T15:44:39;33.7;24.3
78694;SHT31;68029;51.978;5.646;2023-06-10T15:47:08;33.6;24.4
78694;SHT31;68029;51.978;5.646;2023-06-10T15:49:36;33.5;24.3
78694;SHT31;68029;51.978;5.646;2023-06-10T15:52:06;33.4;24.1
78694;SHT31;68029;51.978;5.646;2023-06-10T15:54:34;33.3;24.2
78694;SHT31;68029;51.978;5.646;2023-06-10T15:57:03;33.3;24.5
78694;SHT31;68029;51.978;5.646;2023-06-10T15:59:34;33.2;24.2
78694;SHT31;68029;51.978;5.646;2023-06-10T16:02:03;33.1;24.9
78694;SHT31;68029;51.978;5.646;2023-06-10T16:04:32;33.1;24.3
78694;SHT31;68029;51.978;5.646;2023-06-10T16:07:01;33.0;24.4
78694;SHT31;68029;51.978;5.646;2023-06-10T16:09:29;33.0;25.6
78694;SHT31;68029;51.978;5.646;2023-06-10T16:11:58;33.0;25.5
78694;SHT31;68029;51.978;5.646;2023-06-10T16:14:26;33.0;25.5
78694;SHT31;68029;51.978;5.646;2023-06-10T16:16:55;33.0;26.1
78694;SHT31;68029;51.978;5.646;2023-06-10T16:19:24;32.9;25.4